National Weather Service Raw Text Product

Displaying AFOS PIL: TAFDSM Received: 2018-02-09 05:26 UTC


616 
FTUS43 KDMX 090526
TAFDSM
TAF
KDSM 090526Z 0906/1006 04012KT P6SM VCSH OVC009
     FM090800 03012KT 2SM -SN OVC006
      TEMPO 0908/0910 1SM -SN
     FM091200 03010G17KT P6SM OVC015
     FM091800 02011KT P6SM SCT030 BKN100
     FM100300 01010KT P6SM VCSH OVC030=